Time;durP1;ratioP1;P1;durP2;ratioP2;P2;SDS_P1;SDS_P2;PMS_P1;PMS_P2;Temp;Humidity;BMP_temperature;BMP_pressure;BME280_temperature;BME280_humidity;BME280_pressure;Samples;Min_cycle;Max_cycle;Signal;HPM_P1;HPM_P2
2021/07/31 00:02:24;;;;;;;19.17;6.90;;;;;;;23.97;91.24;94272.59;10567896;28;20038;-75
2021/07/31 00:07:24;;;;;;;27.07;8.57;;;;;;;23.88;92.37;94267.38;10566474;28;20028;-75
2021/07/31 00:12:25;;;;;;;16.60;7.43;;;;;;;23.74;94.33;94272.66;10566868;28;20036;-75
2021/07/31 00:17:25;;;;;;;21.45;7.32;;;;;;;23.56;96.09;94278.63;10566215;28;20027;-75
2021/07/31 00:22:25;;;;;;;23.67;8.17;;;;;;;23.31;98.65;94268.03;10567281;28;20031;-75
2021/07/31 00:27:26;;;;;;;22.80;7.87;;;;;;;23.21;100.00;94265.91;10567315;28;20039;-74
2021/07/31 00:32:26;;;;;;;17.90;7.27;;;;;;;23.23;100.00;94266.34;10567108;28;20034;-75
2021/07/31 00:37:28;;;;;;;19.63;7.47;;;;;;;23.22;100.00;94270.25;10567846;28;20048;-75
2021/07/31 00:42:28;;;;;;;27.57;8.97;;;;;;;23.01;100.00;94274.16;10566943;28;20491;-75
2021/07/31 00:47:28;;;;;;;18.33;7.83;;;;;;;22.94;100.00;94273.22;10566729;27;20293;-75
2021/07/31 00:52:29;;;;;;;21.93;7.90;;;;;;;22.81;100.00;94273.38;10565425;28;20031;-75
2021/07/31 00:57:30;;;;;;;18.33;7.60;;;;;;;22.76;100.00;94261.94;10566493;28;20034;-75
2021/07/31 01:02:31;;;;;;;17.05;8.23;;;;;;;22.49;100.00;94272.78;10574977;28;20032;-74
2021/07/31 01:07:34;;;;;;;19.03;7.47;;;;;;;22.24;100.00;94267.53;10574851;28;20195;-74
2021/07/31 01:12:35;;;;;;;39.25;11.90;;;;;;;22.15;100.00;94265.03;10574709;28;20028;-75
2021/07/31 01:17:36;;;;;;;24.58;9.02;;;;;;;22.15;100.00;94259.56;10574285;28;20054;-75
2021/07/31 01:22:36;;;;;;;19.27;7.87;;;;;;;22.26;100.00;94253.53;10574361;28;20038;-75
2021/07/31 01:27:39;;;;;;;19.90;7.27;;;;;;;22.29;100.00;94247.31;10574047;28;20078;-75
2021/07/31 01:32:39;;;;;;;22.15;7.95;;;;;;;22.40;100.00;94255.78;10573709;28;20723;-75
2021/07/31 01:37:40;;;;;;;28.60;8.00;;;;;;;22.51;100.00;94249.34;10572930;28;20122;-75
2021/07/31 01:42:40;;;;;;;26.27;7.60;;;;;;;22.63;100.00;94253.09;10572561;28;20051;-75
2021/07/31 01:47:41;;;;;;;30.02;10.10;;;;;;;22.57;100.00;94243.59;10573758;28;20088;-75
2021/07/31 01:52:41;;;;;;;27.77;7.65;;;;;;;22.60;100.00;94248.34;10572219;28;20035;-75
2021/07/31 01:57:41;;;;;;;18.73;8.82;;;;;;;22.66;100.00;94250.44;10572898;28;20024;-75
2021/07/31 02:02:42;;;;;;;20.80;8.80;;;;;;;22.56;100.00;94245.53;10571454;28;20067;-75
2021/07/31 02:07:42;;;;;;;19.53;8.43;;;;;;;22.57;100.00;94246.34;10572724;28;20031;-74
2021/07/31 02:12:42;;;;;;;22.30;8.03;;;;;;;22.52;100.00;94233.72;10570448;28;20028;-74
2021/07/31 02:17:43;;;;;;;33.03;8.30;;;;;;;22.40;100.00;94244.84;10570321;28;20383;-74
2021/07/31 02:22:43;;;;;;;18.00;8.60;;;;;;;22.35;100.00;94243.97;10571520;28;20076;-75
2021/07/31 02:27:45;;;;;;;20.50;8.90;;;;;;;22.31;100.00;94251.28;10570642;28;21218;-75
2021/07/31 02:32:45;;;;;;;27.25;10.85;;;;;;;22.34;100.00;94258.00;10570269;28;20048;-75
2021/07/31 02:37:45;;;;;;;25.00;8.87;;;;;;;22.28;100.00;94262.94;10569681;28;20050;-75
2021/07/31 02:42:46;;;;;;;27.63;11.70;;;;;;;22.40;100.00;94259.31;10570811;28;20065;-75
2021/07/31 02:47:46;;;;;;;23.80;9.07;;;;;;;22.27;100.00;94263.31;10570265;28;20020;-75
2021/07/31 02:52:46;;;;;;;25.60;9.03;;;;;;;22.34;100.00;94271.69;10570463;28;20435;-74
2021/07/31 02:57:47;;;;;;;30.03;8.83;;;;;;;22.20;100.00;94272.16;10569604;28;20125;-75
2021/07/31 03:02:47;;;;;;;31.43;10.73;;;;;;;22.02;100.00;94280.78;10570806;28;20027;-75
2021/07/31 03:07:47;;;;;;;27.20;9.97;;;;;;;22.09;100.00;94271.94;10570276;28;20023;-75
2021/07/31 03:12:50;;;;;;;24.73;9.20;;;;;;;22.06;100.00;94280.88;10569793;28;20026;-75
2021/07/31 03:17:51;;;;;;;22.23;9.48;;;;;;;22.04;100.00;94279.63;10569807;27;20514;-75
2021/07/31 03:22:51;;;;;;;17.07;9.07;;;;;;;21.90;100.00;94289.09;10569588;28;20027;-75
2021/07/31 03:27:51;;;;;;;24.63;10.73;;;;;;;21.87;100.00;94286.31;10569620;28;20865;-75
2021/07/31 03:32:53;;;;;;;21.77;9.73;;;;;;;21.83;100.00;94287.00;10569195;28;20080;-74
2021/07/31 03:37:53;;;;;;;29.35;10.20;;;;;;;21.85;100.00;94281.16;10568941;28;20035;-75
2021/07/31 03:42:54;;;;;;;25.57;10.17;;;;;;;21.89;100.00;94276.56;10568404;28;20078;-75
2021/07/31 03:47:55;;;;;;;19.37;11.13;;;;;;;21.84;100.00;94277.66;10568003;28;20023;-75
2021/07/31 03:52:55;;;;;;;22.90;10.75;;;;;;;21.90;100.00;94271.91;10567474;28;20031;-75
2021/07/31 03:57:55;;;;;;;29.63;9.73;;;;;;;22.09;100.00;94273.88;10567233;28;20382;-74
2021/07/31 04:02:56;;;;;;;22.47;11.13;;;;;;;21.96;100.00;94281.41;10568162;28;20019;-74
2021/07/31 04:07:56;;;;;;;23.53;10.83;;;;;;;21.94;100.00;94273.56;10567051;28;20027;-74
2021/07/31 04:12:57;;;;;;;27.87;11.30;;;;;;;21.93;100.00;94282.91;10567792;28;20088;-74
2021/07/31 04:17:57;;;;;;;20.85;10.65;;;;;;;22.10;100.00;94283.66;10567700;28;20053;-75
2021/07/31 04:22:57;;;;;;;28.93;11.50;;;;;;;22.24;100.00;94302.34;10567642;28;20024;-75
2021/07/31 04:27:58;;;;;;;20.90;10.60;;;;;;;22.44;100.00;94303.16;10566672;28;20043;-75
2021/07/31 04:32:58;;;;;;;19.00;10.60;;;;;;;22.58;100.00;94300.75;10566649;28;20470;-75
2021/07/31 04:37:58;;;;;;;25.00;11.57;;;;;;;22.67;100.00;94309.53;10566814;28;20034;-75
2021/07/31 04:42:59;;;;;;;16.90;9.30;;;;;;;22.78;100.00;94319.91;10567012;28;20261;-75
2021/07/31 04:48:00;;;;;;;22.17;10.47;;;;;;;23.03;100.00;94317.66;10567211;28;20044;-75
2021/07/31 04:53:00;;;;;;;36.03;11.48;;;;;;;23.18;100.00;94333.22;10567005;28;20478;-76
2021/07/31 04:58:01;;;;;;;20.23;9.07;;;;;;;23.71;100.00;94337.28;10566479;28;20135;-75
2021/07/31 05:03:05;;;;;;;25.48;12.45;;;;;;;24.21;100.00;94340.00;10564754;28;20035;-75
2021/07/31 05:08:06;;;;;;;28.15;11.13;;;;;;;24.49;100.00;94344.31;10565938;28;20641;-75
2021/07/31 05:13:07;;;;;;;21.15;9.73;;;;;;;25.01;100.00;94345.38;10564371;28;20027;-75
2021/07/31 05:18:09;;;;;;;21.80;9.50;;;;;;;25.18;100.00;94338.50;10565084;28;20028;-75
2021/07/31 05:23:09;;;;;;;26.40;9.55;;;;;;;25.63;97.86;94344.06;10565816;28;20031;-75
2021/07/31 05:28:11;;;;;;;27.48;10.57;;;;;;;26.04;92.87;94340.50;10565996;28;20039;-75
2021/07/31 05:33:11;;;;;;;23.23;10.73;;;;;;;26.36;87.17;94350.94;10565843;28;20063;-75
2021/07/31 05:38:11;;;;;;;26.30;9.33;;;;;;;27.10;84.45;94354.47;10565742;28;20473;-76
2021/07/31 05:43:12;;;;;;;21.93;8.60;;;;;;;27.92;78.83;94353.06;10565622;28;20035;-76
2021/07/31 05:48:12;;;;;;;20.13;8.02;;;;;;;28.72;72.18;94354.59;10572358;28;20041;-76
2021/07/31 05:53:12;;;;;;;21.77;8.60;;;;;;;29.45;65.88;94350.31;10573402;28;20062;-76
2021/07/31 05:58:13;;;;;;;28.83;8.77;;;;;;;29.46;65.01;94349.13;10571853;28;20142;-75
2021/07/31 06:03:13;;;;;;;26.00;9.10;;;;;;;29.46;63.41;94346.38;10572625;28;20035;-75
2021/07/31 06:08:13;;;;;;;22.20;8.30;;;;;;;30.58;58.92;94351.06;10572816;27;20190;-76
2021/07/31 06:13:14;;;;;;;24.00;9.20;;;;;;;30.91;56.55;94345.94;10572623;28;20471;-75
2021/07/31 06:18:14;;;;;;;25.43;10.00;;;;;;;31.17;54.31;94338.91;10572269;28;20028;-76
2021/07/31 06:23:14;;;;;;;27.27;9.13;;;;;;;31.23;53.97;94346.75;10570570;28;20431;-75
2021/07/31 06:28:15;;;;;;;25.77;8.67;;;;;;;31.83;52.59;94334.03;10570942;28;20028;-75
2021/07/31 06:33:15;;;;;;;18.63;7.95;;;;;;;33.19;47.55;94334.78;10573165;28;20041;-76
2021/07/31 06:38:16;;;;;;;30.60;8.80;;;;;;;33.98;44.87;94329.50;10573009;28;20028;-76
2021/07/31 06:43:16;;;;;;;27.83;8.60;;;;;;;34.52;42.46;94328.94;10572764;28;20027;-76
2021/07/31 06:48:16;;;;;;;28.47;8.70;;;;;;;34.32;42.52;94317.91;10572371;28;20757;-76
2021/07/31 06:53:17;;;;;;;24.67;8.07;;;;;;;35.19;40.08;94323.94;10572065;28;20069;-76
2021/07/31 06:58:17;;;;;;;32.00;9.00;;;;;;;35.65;38.29;94318.22;10571486;28;20031;-76
2021/07/31 07:03:18;;;;;;;18.17;6.83;;;;;;;36.31;36.58;94315.75;10571245;27;20055;-76
2021/07/31 07:08:18;;;;;;;16.80;7.00;;;;;;;35.11;38.88;94314.22;10571320;28;20055;-76
2021/07/31 07:13:18;;;;;;;22.07;7.30;;;;;;;36.53;37.21;94317.78;10571355;27;20398;-76
2021/07/31 07:18:19;;;;;;;23.07;7.57;;;;;;;32.39;54.51;94318.84;10570821;28;20022;-75
2021/07/31 07:23:19;;;;;;;23.30;8.90;;;;;;;32.97;53.26;94315.75;10570807;28;20034;-76
2021/07/31 07:28:20;;;;;;;22.27;7.87;;;;;;;34.16;45.13;94307.53;10570433;28;20119;-76
2021/07/31 07:33:20;;;;;;;22.83;7.13;;;;;;;35.32;40.08;94318.41;10570171;28;20027;-76
2021/07/31 07:38:20;;;;;;;21.83;7.20;;;;;;;36.59;37.57;94311.16;10570566;28;20024;-76
2021/07/31 07:43:21;;;;;;;17.53;5.93;;;;;;;37.40;35.20;94319.09;10570112;28;20455;-76
2021/07/31 07:48:21;;;;;;;15.37;6.57;;;;;;;38.58;32.91;94312.75;10570885;28;20119;-76
2021/07/31 07:53:21;;;;;;;38.30;7.30;;;;;;;39.23;31.45;94309.22;10569625;28;20039;-75
2021/07/31 07:58:22;;;;;;;30.70;8.13;;;;;;;39.98;30.16;94302.84;10569154;28;20023;-75
2021/07/31 08:03:22;;;;;;;24.70;7.00;;;;;;;41.17;28.85;94302.50;10569186;28;20078;-75
2021/07/31 08:08:22;;;;;;;24.77;6.00;;;;;;;42.01;27.83;94296.72;10568042;28;20035;-75
2021/07/31 08:13:23;;;;;;;17.33;6.27;;;;;;;42.59;26.68;94289.78;10568745;28;20065;-75
2021/07/31 08:18:23;;;;;;;24.40;6.60;;;;;;;42.27;26.82;94284.00;10568462;28;20031;-75
2021/07/31 08:23:23;;;;;;;15.13;5.90;;;;;;;41.76;27.11;94289.66;10568137;28;20044;-75
2021/07/31 08:28:24;;;;;;;16.57;5.60;;;;;;;41.94;26.59;94285.84;10567736;28;20024;-75
2021/07/31 08:33:24;;;;;;;20.30;5.30;;;;;;;41.66;26.95;94279.75;10568615;28;20122;-76
2021/07/31 08:38:25;;;;;;;27.00;9.13;;;;;;;42.04;26.35;94285.72;10568291;28;20031;-75
2021/07/31 08:43:25;;;;;;;18.67;5.87;;;;;;;42.62;25.77;94283.97;10568188;28;20034;-75
2021/07/31 08:48:30;;;;;;;26.27;5.90;;;;;;;42.92;25.55;94274.53;10567582;28;20058;-75
2021/07/31 08:53:30;;;;;;;34.30;10.73;;;;;;;42.87;25.42;94284.47;10567861;28;20103;-75
2021/07/31 08:58:31;;;;;;;29.38;5.65;;;;;;;43.54;24.54;94283.63;10567544;28;20741;-75
2021/07/31 09:03:43;;;;;;;26.67;6.60;;;;;;;43.76;24.50;94271.69;10565812;28;20041;-76
2021/07/31 09:08:53;;;;;;;152.27;56.65;;;;;;;43.70;24.37;94268.06;10566986;28;20042;-75
2021/07/31 09:14:16;;;;;;;48.28;15.38;;;;;;;43.86;24.12;94260.97;10567040;28;20031;-75
2021/07/31 09:19:17;;;;;;;18.85;5.65;;;;;;;44.11;24.09;94250.81;10568867;28;20026;-76
2021/07/31 09:24:23;;;;;;;20.33;5.22;;;;;;;44.65;23.15;94252.13;10575639;27;20043;-75
2021/07/31 09:29:33;;;;;;;18.55;5.07;;;;;;;45.20;23.14;94244.28;10574845;28;20035;-76
2021/07/31 09:34:44;;;;;;;45.67;12.88;;;;;;;46.49;21.63;94233.31;10575022;27;20132;-73
2021/07/31 09:39:52;;;;;;;19.85;4.57;;;;;;;45.97;21.10;94237.56;10575164;28;20026;-73
2021/07/31 09:44:52;;;;;;;16.27;5.00;;;;;;;46.05;21.46;94238.59;10575071;28;20459;-75
2021/07/31 09:49:53;;;;;;;17.90;6.40;;;;;;;47.06;21.22;94223.19;10572900;28;20032;-73
2021/07/31 09:54:58;;;;;;;19.50;4.63;;;;;;;48.57;19.86;94221.53;10574270;28;20031;-74
2021/07/31 10:00:00;;;;;;;18.92;4.47;;;;;;;48.55;19.62;94212.75;10574154;28;20483;-73
2021/07/31 10:05:01;;;;;;;18.13;5.25;;;;;;;46.95;20.87;94200.50;10574443;27;20030;-73
2021/07/31 10:10:01;;;;;;;24.47;5.43;;;;;;;46.99;20.91;94192.44;10572074;28;20023;-74
2021/07/31 10:15:02;;;;;;;15.40;4.43;;;;;;;46.47;20.99;94193.25;10573933;28;20277;-73
2021/07/31 10:20:02;;;;;;;20.00;4.97;;;;;;;47.34;20.18;94190.91;10573518;28;20277;-74
2021/07/31 10:25:07;;;;;;;18.70;5.70;;;;;;;46.72;21.09;94186.44;10572930;28;20293;-74
2021/07/31 10:30:29;;;;;;;15.52;4.85;;;;;;;47.01;20.97;94181.34;10572670;28;20024;-74
2021/07/31 10:35:37;;;;;;;16.92;5.35;;;;;;;45.92;21.38;94182.34;10572992;27;20504;-73
2021/07/31 10:40:40;;;;;;;21.85;5.47;;;;;;;47.71;20.55;94172.44;10572590;28;20027;-74
2021/07/31 10:45:41;;;;;;;23.83;4.88;;;;;;;48.14;19.60;94167.41;10572606;27;20023;-74
2021/07/31 10:50:42;;;;;;;17.35;4.68;;;;;;;48.22;19.90;94162.63;10572418;28;20040;-74
2021/07/31 10:55:42;;;;;;;17.87;4.40;;;;;;;48.58;19.38;94165.25;10571707;28;20020;-74
2021/07/31 11:00:46;;;;;;;13.30;4.57;;;;;;;49.80;18.37;94148.03;10571911;28;20034;-74
2021/07/31 11:06:03;;;;;;;17.77;4.43;;;;;;;49.37;18.79;94152.66;10571382;28;20469;-74
2021/07/31 11:11:13;;;;;;;17.63;5.22;;;;;;;47.18;20.33;94152.75;10571616;28;20058;-73
2021/07/31 11:16:13;;;;;;;21.02;5.20;;;;;;;45.24;21.74;94145.50;10570983;28;20118;-73
2021/07/31 11:21:34;;;;;;;19.40;6.60;;;;;;;42.75;24.29;94139.47;10571189;28;20023;-75
2021/07/31 11:26:49;;;;;;;16.88;5.63;;;;;;;40.85;26.48;94143.56;10570496;28;20040;-73
2021/07/31 11:32:14;;;;;;;16.42;6.35;;;;;;;39.76;27.55;94131.50;10570873;28;20030;-75
2021/07/31 11:37:16;;;;;;;27.60;6.38;;;;;;;38.82;29.25;94123.19;10570371;28;20460;-76
2021/07/31 11:42:20;;;;;;;17.98;7.38;;;;;;;38.53;29.69;94125.28;10569912;28;20134;-75
2021/07/31 11:47:30;;;;;;;22.83;7.15;;;;;;;38.53;30.76;94119.66;10570506;28;20031;-75
2021/07/31 11:52:30;;;;;;;24.42;7.28;;;;;;;38.39;30.66;94123.91;10569728;28;20100;-76
2021/07/31 11:57:31;;;;;;;24.80;6.77;;;;;;;38.33;31.49;94127.81;10570573;28;20076;-75
2021/07/31 12:02:33;;;;;;;24.67;7.60;;;;;;;37.70;30.77;94128.06;10569148;28;20030;-75
2021/07/31 12:07:34;;;;;;;18.10;7.57;;;;;;;37.41;30.78;94129.25;10567385;27;20269;-76
2021/07/31 12:12:36;;;;;;;22.70;7.25;;;;;;;37.67;31.32;94107.34;10567986;28;20483;-75
2021/07/31 12:17:38;;;;;;;17.95;6.50;;;;;;;37.47;31.43;94107.78;10568979;28;20111;-76
2021/07/31 12:22:52;;;;;;;24.10;6.70;;;;;;;37.17;32.13;94104.56;10568780;28;20398;-76
2021/07/31 12:28:10;;;;;;;16.23;6.57;;;;;;;36.42;33.65;94094.25;10568459;28;20044;-76
2021/07/31 12:33:17;;;;;;;14.25;6.80;;;;;;;36.30;33.53;94100.69;10568495;28;20127;-76
2021/07/31 12:38:27;;;;;;;25.42;7.18;;;;;;;36.24;34.19;94108.88;10568951;27;20741;-76
2021/07/31 12:43:29;;;;;;;21.60;7.65;;;;;;;35.87;33.89;94117.78;10566965;28;20056;-75
2021/07/31 12:48:30;;;;;;;24.92;7.95;;;;;;;36.02;35.07;94108.91;10567824;28;20486;-75
2021/07/31 12:53:31;;;;;;;23.98;8.13;;;;;;;36.44;34.13;94117.00;10569263;28;20027;-76
2021/07/31 12:58:31;;;;;;;34.20;8.20;;;;;;;36.66;35.21;94124.56;10581879;28;20016;-76
2021/07/31 13:03:32;;;;;;;21.00;6.80;;;;;;;36.49;35.53;94113.56;10581725;27;20089;-75
2021/07/31 13:08:32;;;;;;;19.47;7.00;;;;;;;36.40;35.85;94111.50;10581689;28;20107;-75
2021/07/31 13:13:33;;;;;;;17.33;6.82;;;;;;;36.56;34.92;94115.31;10581373;27;20277;-76
2021/07/31 13:18:33;;;;;;;17.50;6.82;;;;;;;36.60;35.24;94125.16;10580074;28;20040;-76
2021/07/31 13:23:35;;;;;;;24.63;6.82;;;;;;;36.56;34.90;94121.72;10579847;28;20043;-76
2021/07/31 13:28:36;;;;;;;25.77;7.47;;;;;;;36.27;34.63;94117.16;10581168;27;20069;-76
2021/07/31 13:33:36;;;;;;;18.10;7.63;;;;;;;35.71;35.98;94131.91;10581296;27;20088;-76
2021/07/31 13:38:37;;;;;;;19.93;7.03;;;;;;;35.61;36.55;94150.59;10580996;28;20027;-75
2021/07/31 13:43:37;;;;;;;30.10;7.07;;;;;;;34.64;37.05;94184.31;10580600;27;20024;-75
2021/07/31 13:48:38;;;;;;;20.60;6.10;;;;;;;33.92;37.67;94175.13;10581074;27;20812;-75
2021/07/31 13:53:38;;;;;;;15.87;6.53;;;;;;;33.36;37.83;94177.66;10580785;27;20110;-75
2021/07/31 13:58:39;;;;;;;20.23;6.47;;;;;;;32.92;38.23;94151.22;10579490;28;20022;-75
2021/07/31 14:03:41;;;;;;;23.37;6.90;;;;;;;32.63;37.75;94157.44;10580766;28;20474;-75
2021/07/31 14:08:41;;;;;;;20.02;6.65;;;;;;;32.23;38.77;94160.22;10574407;27;20285;-75
2021/07/31 14:13:42;;;;;;;17.95;6.22;;;;;;;32.25;39.62;94153.03;10574084;28;20810;-75
2021/07/31 14:18:43;;;;;;;32.65;6.35;;;;;;;32.12;39.74;94149.28;10573418;28;20031;-75
2021/07/31 14:23:43;;;;;;;18.70;7.33;;;;;;;32.28;39.85;94170.88;10572913;28;20062;-75
2021/07/31 14:28:43;;;;;;;16.15;6.13;;;;;;;32.35;40.47;94185.41;10573518;28;20786;-75
2021/07/31 14:33:44;;;;;;;27.17;7.37;;;;;;;31.83;46.81;94178.41;10573006;28;20103;-76
2021/07/31 14:38:44;;;;;;;17.83;7.63;;;;;;;31.48;53.15;94179.78;10573138;28;20027;-75
2021/07/31 14:43:45;;;;;;;18.23;8.17;;;;;;;31.49;52.38;94171.03;10572366;28;20016;-75
2021/07/31 14:48:45;;;;;;;14.53;7.53;;;;;;;31.53;50.01;94177.31;10571909;28;20032;-75
2021/07/31 14:53:46;;;;;;;28.63;7.95;;;;;;;31.45;50.61;94173.06;10572514;28;20033;-75
2021/07/31 14:58:47;;;;;;;22.30;7.63;;;;;;;31.31;52.22;94176.09;10572015;28;20475;-75
2021/07/31 15:03:47;;;;;;;16.50;7.57;;;;;;;31.41;54.98;94172.38;10571993;28;20266;-76
2021/07/31 15:08:47;;;;;;;14.30;6.93;;;;;;;31.60;52.87;94175.66;10571941;28;20035;-75
2021/07/31 15:13:48;;;;;;;23.33;7.90;;;;;;;31.60;50.59;94211.78;10570071;28;20020;-75
2021/07/31 15:18:48;;;;;;;28.00;9.67;;;;;;;30.51;74.40;94267.94;10570518;28;20038;-75
2021/07/31 15:23:48;;;;;;;29.27;9.37;;;;;;;29.14;88.65;94247.69;10570967;28;20130;-75
2021/07/31 15:28:49;;;;;;;21.53;9.63;;;;;;;27.67;100.00;94268.25;10570389;28;20032;-75
2021/07/31 15:33:49;;;;;;;25.10;10.23;;;;;;;26.63;100.00;94277.06;10570437;28;20403;-75
2021/07/31 15:38:49;;;;;;;26.20;11.37;;;;;;;26.26;100.00;94302.84;10570739;28;20023;-75
2021/07/31 15:43:50;;;;;;;29.03;11.80;;;;;;;25.68;100.00;94307.94;10570202;28;20035;-75
2021/07/31 15:48:50;;;;;;;27.88;12.95;;;;;;;24.71;100.00;94296.75;10570094;28;20031;-75
2021/07/31 15:53:51;;;;;;;38.67;13.88;;;;;;;23.80;100.00;94271.16;10570140;28;20497;-75
2021/07/31 15:58:55;;;;;;;29.83;14.80;;;;;;;22.12;100.00;94287.63;10568670;28;20027;-74
2021/07/31 16:03:55;;;;;;;40.53;17.45;;;;;;;21.39;100.00;94289.03;10569893;28;20051;-74
2021/07/31 16:08:56;;;;;;;28.98;15.55;;;;;;;21.13;100.00;94320.44;10567762;28;20122;-74
2021/07/31 16:13:56;;;;;;;25.35;14.50;;;;;;;21.09;100.00;94341.41;10568995;28;20027;-75
2021/07/31 16:18:57;;;;;;;34.80;18.90;;;;;;;21.23;100.00;94369.09;10568963;28;20034;-75
2021/07/31 16:23:58;;;;;;;34.58;20.92;;;;;;;21.51;100.00;94431.13;10568962;28;20304;-74
2021/07/31 16:28:58;;;;;;;41.03;20.13;;;;;;;21.76;100.00;94504.88;10566267;28;20035;-74
2021/07/31 16:33:59;;;;;;;42.93;15.97;;;;;;;19.98;100.00;94667.91;10568344;28;20026;-74
2021/07/31 16:38:59;;;;;;;29.67;19.05;;;;;;;19.80;100.00;94546.47;10566169;28;20051;-74
2021/07/31 16:44:00;;;;;;;21.40;7.07;;;;;;;20.21;100.00;94479.25;10567049;28;20035;-73
2021/07/31 16:49:00;;;;;;;24.80;13.83;;;;;;;19.58;100.00;94471.31;10567881;28;20058;-73
2021/07/31 16:54:00;;;;;;;27.20;13.38;;;;;;;19.44;100.00;94505.09;10568240;28;20039;-73
2021/07/31 16:59:01;;;;;;;23.57;13.70;;;;;;;19.39;100.00;94516.19;10568071;28;20023;-73
2021/07/31 17:04:01;;;;;;;31.87;15.20;;;;;;;19.24;100.00;94493.09;10567974;28;20764;-72
2021/07/31 17:09:02;;;;;;;22.67;14.20;;;;;;;19.25;100.00;94493.91;10567895;28;20394;-73
2021/07/31 17:14:04;;;;;;;22.58;14.50;;;;;;;19.38;100.00;94464.75;10567768;28;20035;-72
2021/07/31 17:19:04;;;;;;;27.95;13.60;;;;;;;19.45;100.00;94451.38;10567015;28;20107;-72
2021/07/31 17:24:05;;;;;;;25.02;12.35;;;;;;;19.54;100.00;94413.94;10567957;28;20043;-72
2021/07/31 17:29:06;;;;;;;19.67;12.20;;;;;;;19.66;100.00;94393.28;10566982;28;20032;-72
2021/07/31 17:34:07;;;;;;;18.17;10.48;;;;;;;19.85;100.00;94382.63;10567251;28;20031;-73
2021/07/31 17:39:07;;;;;;;19.45;11.13;;;;;;;19.84;100.00;94391.16;10567371;28;20467;-74
2021/07/31 17:44:07;;;;;;;16.27;10.40;;;;;;;20.20;100.00;94395.78;10574410;28;20427;-73
2021/07/31 17:49:08;;;;;;;25.57;11.87;;;;;;;20.15;100.00;94406.97;10573965;28;20490;-72
2021/07/31 17:54:08;;;;;;;29.10;14.68;;;;;;;20.27;100.00;94430.69;10574611;28;20042;-72
2021/07/31 17:59:09;;;;;;;23.23;12.90;;;;;;;20.31;100.00;94435.13;10574785;28;20027;-73
2021/07/31 18:04:09;;;;;;;17.40;10.23;;;;;;;20.40;100.00;94423.28;10573436;28;20027;-72
2021/07/31 18:09:10;;;;;;;27.05;12.60;;;;;;;20.50;100.00;94455.59;10572319;28;20027;-73
2021/07/31 18:14:10;;;;;;;22.23;11.60;;;;;;;20.37;100.00;94486.75;10574274;28;20041;-73
2021/07/31 18:19:10;;;;;;;22.80;13.10;;;;;;;20.22;100.00;94496.41;10572297;28;20272;-73
2021/07/31 18:24:11;;;;;;;19.17;11.10;;;;;;;20.13;100.00;94494.59;10570993;28;20134;-72
2021/07/31 18:29:11;;;;;;;30.27;13.17;;;;;;;20.11;100.00;94498.81;10570361;28;20032;-73
2021/07/31 18:34:12;;;;;;;24.97;12.97;;;;;;;20.13;100.00;94483.66;10543852;28;20291;-73
2021/07/31 18:39:12;;;;;;;29.45;14.75;;;;;;;20.16;100.00;94493.13;10558961;28;20023;-72
2021/07/31 18:44:12;;;;;;;24.60;15.10;;;;;;;20.14;100.00;94485.28;10571109;28;20039;-72
2021/07/31 18:49:13;;;;;;;34.00;16.27;;;;;;;20.16;100.00;94484.94;10552911;28;20038;-72
2021/07/31 18:54:13;;;;;;;33.27;17.07;;;;;;;20.11;100.00;94485.19;10570171;28;20062;-72
2021/07/31 18:59:14;;;;;;;25.60;13.73;;;;;;;20.15;100.00;94488.81;10570513;28;20035;-72
2021/07/31 19:04:14;;;;;;;24.77;12.07;;;;;;;20.12;100.00;94476.66;10571088;28;20027;-72
2021/07/31 19:09:14;;;;;;;20.07;10.33;;;;;;;20.08;100.00;94473.00;10552632;28;20791;-72
2021/07/31 19:14:15;;;;;;;20.93;10.20;;;;;;;20.01;100.00;94469.22;10569748;28;20043;-72
2021/07/31 19:19:15;;;;;;;19.60;9.10;;;;;;;19.91;100.00;94487.66;10569855;28;20286;-72
2021/07/31 19:24:16;;;;;;;24.33;11.70;;;;;;;19.89;100.00;94472.75;10558690;28;20044;-72
2021/07/31 19:29:17;;;;;;;15.25;7.63;;;;;;;20.04;100.00;94466.63;10527282;28;20396;-72
2021/07/31 19:34:18;;;;;;;13.77;7.97;;;;;;;20.14;100.00;94470.84;10526922;28;20032;-72
2021/07/31 19:39:18;;;;;;;11.87;6.77;;;;;;;20.24;100.00;94478.56;10509118;28;20024;-72
2021/07/31 19:44:19;;;;;;;13.30;7.00;;;;;;;20.40;100.00;94470.50;10526425;28;20332;-72
2021/07/31 19:49:19;;;;;;;11.95;8.93;;;;;;;20.44;100.00;94478.78;10508376;28;20032;-73
2021/07/31 19:54:19;;;;;;;11.23;7.23;;;;;;;20.30;100.00;94481.88;10526558;28;20042;-72
2021/07/31 19:59:20;;;;;;;15.63;8.57;;;;;;;20.43;100.00;94491.66;10526209;28;20077;-72
2021/07/31 20:04:22;;;;;;;14.73;7.97;;;;;;;20.37;100.00;94505.88;10522524;28;20024;-73
2021/07/31 20:09:23;;;;;;;14.80;9.73;;;;;;;20.36;100.00;94515.19;10546860;28;20060;-72
2021/07/31 20:14:23;;;;;;;25.08;10.30;;;;;;;20.32;100.00;94526.78;10525329;28;20049;-73
2021/07/31 20:19:23;;;;;;;16.00;9.73;;;;;;;20.11;100.00;94542.47;10525495;28;20096;-73
2021/07/31 20:24:24;;;;;;;18.23;10.60;;;;;;;20.17;100.00;94553.97;10540132;27;20054;-73
2021/07/31 20:29:24;;;;;;;15.45;9.65;;;;;;;20.27;100.00;94570.66;10609758;27;20032;-72
2021/07/31 20:34:26;;;;;;;20.90;12.33;;;;;;;20.26;100.00;94580.00;10588701;27;20060;-73
2021/07/31 20:39:27;;;;;;;21.35;13.75;;;;;;;20.09;100.00;94569.28;10567664;28;20348;-72
2021/07/31 20:44:30;;;;;;;21.67;14.55;;;;;;;20.21;100.00;94572.03;10567493;28;20825;-73
2021/07/31 20:49:34;;;;;;;19.20;10.95;;;;;;;20.12;100.00;94585.78;10566127;28;20028;-72
2021/07/31 20:54:34;;;;;;;19.25;11.75;;;;;;;20.12;100.00;94591.25;10566686;28;20852;-72
2021/07/31 20:59:35;;;;;;;22.00;12.43;;;;;;;20.02;100.00;94596.31;10567349;28;20020;-72
2021/07/31 21:04:35;;;;;;;23.70;11.83;;;;;;;20.03;100.00;94600.66;10537296;28;20036;-72
2021/07/31 21:09:35;;;;;;;19.63;11.98;;;;;;;20.01;100.00;94598.25;10524337;28;20090;-73
2021/07/31 21:14:36;;;;;;;26.27;12.37;;;;;;;20.02;100.00;94604.50;10563732;28;20039;-72
2021/07/31 21:19:36;;;;;;;24.83;14.05;;;;;;;20.05;100.00;94591.00;10533143;28;20391;-72
2021/07/31 21:24:37;;;;;;;25.70;12.03;;;;;;;19.99;100.00;94584.13;10557599;28;20472;-72
2021/07/31 21:29:37;;;;;;;23.93;10.97;;;;;;;20.00;100.00;94614.97;10573753;28;20031;-72
2021/07/31 21:34:37;;;;;;;22.23;10.27;;;;;;;20.12;100.00;94636.81;10574380;28;20050;-73
2021/07/31 21:39:38;;;;;;;21.53;12.87;;;;;;;20.17;100.00;94669.34;10550874;28;20036;-73
2021/07/31 21:44:38;;;;;;;24.20;13.17;;;;;;;19.89;100.00;94721.72;10531492;28;20372;-72
2021/07/31 21:49:39;;;;;;;23.05;14.10;;;;;;;19.64;100.00;94715.31;10530961;28;20036;-73
2021/07/31 21:54:39;;;;;;;28.27;16.97;;;;;;;19.62;100.00;94748.38;10530929;28;20065;-73
2021/07/31 21:59:39;;;;;;;34.57;21.30;;;;;;;19.74;100.00;94749.56;10530530;28;20429;-73
2021/07/31 22:04:40;;;;;;;33.83;21.40;;;;;;;19.76;100.00;94750.84;10529930;28;20082;-72
2021/07/31 22:09:40;;;;;;;33.87;19.17;;;;;;;19.64;100.00;94727.00;10511164;28;20475;-72
2021/07/31 22:14:40;;;;;;;38.95;17.17;;;;;;;19.58;100.00;94708.47;10529162;28;20036;-73
2021/07/31 22:19:41;;;;;;;27.40;17.47;;;;;;;19.67;100.00;94706.47;10529184;28;20024;-75
2021/07/31 22:24:41;;;;;;;25.43;13.90;;;;;;;19.80;100.00;94680.09;10514518;28;20299;-77
2021/07/31 22:29:41;;;;;;;22.13;12.23;;;;;;;20.06;100.00;94677.13;10487141;28;20032;-77
2021/07/31 22:34:42;;;;;;;19.73;11.23;;;;;;;20.36;100.00;94648.91;10487971;28;20036;-77
2021/07/31 22:39:42;;;;;;;15.20;8.85;;;;;;;20.57;100.00;94646.94;10487524;28;20031;-76
2021/07/31 22:44:43;;;;;;;20.40;7.83;;;;;;;20.79;100.00;94642.19;10487807;28;20693;-76
2021/07/31 22:49:43;;;;;;;18.67;8.13;;;;;;;20.86;100.00;94647.09;10487766;28;20033;-77